Chilapa Escoba Tercera Seccion, Mexico

6:10 PM CST on January 16, 2018 (GMT -0600)
C P A Carlos Rovirosa International | | Change Station

Elev 43 ft 18.00 °N, 92.82 °W | Updated 27 minutes ago

Overcast
Overcast
70 °F
Feels Like 70 °F
N
5
Wind Variable Wind from East

Today
High -- | Low -- °F
--% Chance of Precip.
Yesterday
High -- | Low -- °F
Precip. -- in
Pressure 30.22 in
Visibility 7.0 miles
Clouds Few 1200 ft
Overcast 5000 ft
Dew Point 57 °F
Humidity 64%
Rainfall 0.00 in
Snow Depth Not available.
6:45 AM 5:55 PM
Waning Crescent, 0% visible
METAR MMVA 162343Z 08004KT 7SM FEW012 OVC050 21/14 A3023 RMK SLP234 52010 917 8/5// BINOVC
Pressure 30.22 in
Visibility 7.0 miles
Clouds Few 1200 ft
Overcast 5000 ft
Dew Point 57 °F
Humidity 64%
Rainfall 0.00 in
Snow Depth Not available.
6:45 AM 5:55 PM
Waning Crescent, 0% visible
METAR MMVA 162343Z 08004KT 7SM FEW012 OVC050 21/14 A3023 RMK SLP234 52010 917 8/5// BINOVC

Get Severe Weather Alerts

Thanks for signing up!

Be on the lookout for a verification email in your inbox.

You'll start receiving the daily forecast at 6 AM.

×

10-Day Weather Forecast

No radar image for this location.
×

Almanac

Astronomy

Jan. 16, 2018 Rise Set
Actual Time
Civil Twilight
Nautical Twilight
Astronomical Twilight
Moon
Length of Visible Light
Length of Day
Tomorrow will be .
, % of the Moon is Illuminated

Today's Extremes

Country Highs Country Lows

Community

WunderPhotos

Category 6

Welcome to Category 6. This is the collective home for Weather Underground's featured writeups by Dr. Jeff Masters (right), Bob Henson (left), Chris Burt, and other regular contributors.

Nearby

Air Quality

  Air Quality AQ Index Pollutant
Not available.

Snow Depth

Station Depth Elevation

Earthquake Activity

City Distance Mag. Time & Date
Minimum magnitude displayed is 2.5.

Coastal Water Temperatures

Place Temperature

Stations

Nearby Weather Stations

Station Location Temp. Windchill Dew Point Humidity Wind Precip. Elev Updated Type